createdAt,value
2022-08-09T00:00:00.750Z,45.04
2022-08-09T00:02:32.157Z,44.93
2022-08-09T00:05:03.519Z,45.01
2022-08-09T00:07:45.764Z,44.77
2022-08-09T00:10:17.983Z,44.56
2022-08-09T00:12:51.727Z,45.22
2022-08-09T00:15:35.339Z,45.21
2022-08-09T00:18:11.310Z,45.27
2022-08-09T00:20:41.390Z,45.20
2022-08-09T00:23:55.459Z,44.98
2022-08-09T00:25:56.234Z,45.01
2022-08-09T00:28:26.457Z,44.92
2022-08-09T00:30:53.945Z,45.39
2022-08-09T00:33:20.387Z,44.96
2022-08-09T00:36:00.933Z,45.34
2022-08-09T00:38:27.987Z,44.93
2022-08-09T00:40:55.089Z,44.99
2022-08-09T00:44:10.445Z,44.79
2022-08-09T00:46:11.632Z,44.79
2022-08-09T00:48:56.314Z,44.71
2022-08-09T00:51:23.010Z,44.98
2022-08-09T00:53:52.683Z,45.00
2022-08-09T00:56:19.315Z,45.09
2022-08-09T00:58:49.151Z,45.10
2022-08-09T01:01:21.336Z,45.56
2022-08-09T01:04:00.701Z,44.68
2022-08-09T01:06:54.322Z,45.49
2022-08-09T01:09:36.878Z,44.68
2022-08-09T01:12:34.092Z,44.66
2022-08-09T01:15:16.823Z,44.76
2022-08-09T01:17:59.741Z,44.94
2022-08-09T01:20:52.156Z,44.81
2022-08-09T01:24:02.975Z,44.96
2022-08-09T01:26:56.516Z,45.16
2022-08-09T01:29:41.258Z,44.79
2022-08-09T01:32:31.645Z,45.13
2022-08-09T01:35:28.989Z,45.29
2022-08-09T01:38:07.961Z,44.84
2022-08-09T01:40:40.464Z,44.84
2022-08-09T01:43:07.173Z,45.30
2022-08-09T01:45:33.977Z,45.17
2022-08-09T01:48:02.266Z,45.43
2022-08-09T01:50:36.819Z,45.71
2022-08-09T01:53:19.401Z,45.32
2022-08-09T01:55:47.045Z,45.26
2022-08-09T01:58:14.084Z,45.31
2022-08-09T02:00:41.581Z,45.67
2022-08-09T02:03:13.826Z,45.50
2022-08-09T02:06:03.950Z,45.64
2022-08-09T02:08:39.492Z,45.16
2022-08-09T02:11:17.206Z,45.56
2022-08-09T02:13:44.232Z,45.49
2022-08-09T02:16:35.280Z,45.83
2022-08-09T02:19:20.332Z,45.08
2022-08-09T02:21:48.128Z,45.39
2022-08-09T02:24:26.453Z,45.39
2022-08-09T02:26:54.915Z,45.51
2022-08-09T02:29:27.287Z,45.40
2022-08-09T02:31:56.695Z,45.28
2022-08-09T02:34:40.873Z,45.32
2022-08-09T02:37:14.905Z,45.57
2022-08-09T02:39:54.976Z,45.28
2022-08-09T02:42:41.225Z,45.00
2022-08-09T02:45:16.601Z,45.27
2022-08-09T02:47:46.332Z,45.45
2022-08-09T02:50:29.680Z,45.69
2022-08-09T02:53:09.586Z,45.32
2022-08-09T02:55:53.737Z,45.44
2022-08-09T02:58:35.846Z,45.63
2022-08-09T03:01:06.380Z,45.24
2022-08-09T03:03:37.190Z,45.33
2022-08-09T03:06:21.818Z,45.25
2022-08-09T03:08:48.466Z,45.48
2022-08-09T03:12:04.329Z,45.50
2022-08-09T03:14:03.672Z,45.97
2022-08-09T03:16:30.420Z,46.23
2022-08-09T03:18:57.026Z,45.72
2022-08-09T03:21:28.388Z,46.08
2022-08-09T03:24:05.141Z,45.69
2022-08-09T03:26:32.234Z,46.02
2022-08-09T03:28:59.343Z,46.00
2022-08-09T03:31:26.973Z,46.26
2022-08-09T03:33:54.822Z,46.06
2022-08-09T03:36:27.373Z,45.69
2022-08-09T03:38:54.739Z,45.95
2022-08-09T03:41:30.272Z,45.83
2022-08-09T03:44:09.805Z,45.76
2022-08-09T03:46:39.113Z,45.64
2022-08-09T03:49:08.695Z,46.09
2022-08-09T03:51:57.326Z,46.12
2022-08-09T03:54:28.939Z,46.06
2022-08-09T03:56:57.982Z,46.10
2022-08-09T03:59:43.301Z,46.38
2022-08-09T04:02:11.581Z,46.24
2022-08-09T04:04:41.373Z,46.16
2022-08-09T04:07:13.045Z,46.03
2022-08-09T04:09:48.355Z,46.09
2022-08-09T04:12:44.698Z,46.19
2022-08-09T04:15:29.553Z,46.06
2022-08-09T04:17:58.467Z,46.03
2022-08-09T04:20:24.943Z,45.73
2022-08-09T04:22:52.569Z,45.99
2022-08-09T04:25:19.320Z,45.80
2022-08-09T04:27:49.150Z,45.45
2022-08-09T04:30:17.654Z,45.44
2022-08-09T04:32:47.675Z,45.28
2022-08-09T04:35:14.410Z,45.18
2022-08-09T04:37:46.338Z,45.71
2022-08-09T04:40:28.625Z,45.53
2022-08-09T04:43:00.826Z,44.96
2022-08-09T04:45:30.324Z,45.12
2022-08-09T04:48:01.941Z,44.87
2022-08-09T04:50:31.924Z,44.63
2022-08-09T04:53:13.241Z,44.41
2022-08-09T04:55:57.498Z,44.67
2022-08-09T04:58:25.655Z,44.68
2022-08-09T05:00:52.740Z,44.34
2022-08-09T05:03:40.549Z,44.23
2022-08-09T05:06:08.265Z,44.04
2022-08-09T05:08:35.119Z,44.04
2022-08-09T05:11:02.407Z,43.45
2022-08-09T05:13:29.329Z,43.42
2022-08-09T05:15:59.942Z,43.30
2022-08-09T05:18:38.483Z,43.04
2022-08-09T05:21:22.868Z,42.56
2022-08-09T05:24:00.125Z,42.82
2022-08-09T05:26:36.990Z,42.45
2022-08-09T05:29:07.743Z,42.53
2022-08-09T05:31:49.272Z,42.19
2022-08-09T05:34:23.112Z,42.40
2022-08-09T05:36:57.308Z,42.04
2022-08-09T05:39:29.640Z,41.15
2022-08-09T05:42:04.811Z,41.23
2022-08-09T05:44:34.587Z,40.80
2022-08-09T05:47:05.635Z,40.29
2022-08-09T05:50:25.732Z,40.02
2022-08-09T05:52:19.954Z,39.95
2022-08-09T05:54:46.609Z,39.06
2022-08-09T05:57:17.469Z,38.47
2022-08-09T05:59:45.934Z,37.59
2022-08-09T06:02:16.986Z,37.03
2022-08-09T06:04:46.161Z,37.45
2022-08-09T06:07:21.543Z,37.43
2022-08-09T06:10:01.927Z,37.44
2022-08-09T06:12:30.085Z,37.52
2022-08-09T06:15:00.893Z,36.49
2022-08-09T06:17:27.821Z,35.90
2022-08-09T06:20:07.074Z,35.67
2022-08-09T06:22:34.716Z,34.04
2022-08-09T06:25:01.553Z,34.10
2022-08-09T06:27:43.104Z,34.30
2022-08-09T06:30:16.171Z,33.92
2022-08-09T06:33:00.825Z,33.39
2022-08-09T06:35:55.715Z,33.18
2022-08-09T06:38:17.586Z,33.52
2022-08-09T06:40:46.074Z,32.77
2022-08-09T06:43:14.172Z,31.56
2022-08-09T06:46:04.934Z,31.09
2022-08-09T06:48:31.043Z,30.28
2022-08-09T06:50:59.029Z,30.30
2022-08-09T06:53:26.024Z,29.70
2022-08-09T06:55:53.260Z,30.38
2022-08-09T06:58:40.874Z,29.55
2022-08-09T07:01:07.856Z,29.53
2022-08-09T07:03:39.754Z,28.22
2022-08-09T07:06:19.959Z,26.84
2022-08-09T07:08:46.903Z,27.14
2022-08-09T07:11:23.588Z,25.79
2022-08-09T07:14:04.562Z,24.76
2022-08-09T07:16:41.909Z,23.71
2022-08-09T07:19:15.515Z,22.59
2022-08-09T07:21:55.358Z,22.79
2022-08-09T07:24:31.948Z,22.36
2022-08-09T07:27:00.294Z,22.90
2022-08-09T07:29:27.341Z,21.46
2022-08-09T07:32:04.854Z,20.97
2022-08-09T07:34:32.467Z,20.07
2022-08-09T07:37:02.443Z,20.56
2022-08-09T07:39:40.159Z,19.77
2022-08-09T07:42:08.768Z,18.72
2022-08-09T07:44:52.985Z,18.76
2022-08-09T07:47:29.613Z,19.37
2022-08-09T07:50:08.642Z,18.72
2022-08-09T07:52:36.734Z,18.77
2022-08-09T07:55:09.494Z,18.07
2022-08-09T07:57:38.455Z,19.47
2022-08-09T08:00:20.578Z,18.36
2022-08-09T08:03:04.589Z,19.62
2022-08-09T08:05:54.394Z,18.59
2022-08-09T08:09:01.897Z,18.94
2022-08-09T08:12:09.868Z,17.90
2022-08-09T08:13:56.554Z,17.65
2022-08-09T08:16:31.459Z,17.39
2022-08-09T08:18:58.787Z,18.36
2022-08-09T08:21:25.431Z,17.16
2022-08-09T08:23:56.214Z,16.98
2022-08-09T08:26:26.623Z,16.69
2022-08-09T08:29:08.994Z,16.46
2022-08-09T08:32:02.524Z,17.35
2022-08-09T08:34:25.453Z,17.64
2022-08-09T08:36:52.337Z,16.96
2022-08-09T08:39:19.038Z,16.63
2022-08-09T08:41:51.872Z,15.88
2022-08-09T08:44:26.916Z,16.48
2022-08-09T08:47:02.364Z,16.39
2022-08-09T08:49:33.408Z,15.39
2022-08-09T08:52:10.220Z,14.97
2022-08-09T08:54:37.620Z,15.67
2022-08-09T08:57:05.637Z,15.49
2022-08-09T08:59:46.626Z,15.09
2022-08-09T09:02:31.274Z,15.38
2022-08-09T09:05:02.955Z,15.59
2022-08-09T09:07:42.233Z,15.44
2022-08-09T09:10:10.242Z,15.99
2022-08-09T09:12:37.140Z,15.34
2022-08-09T09:15:06.238Z,15.42
2022-08-09T09:17:49.580Z,15.08
2022-08-09T09:20:21.464Z,14.68
2022-08-09T09:23:01.982Z,14.19
2022-08-09T09:26:04.209Z,15.61
2022-08-09T09:29:02.544Z,15.16
2022-08-09T09:32:06.669Z,15.16
2022-08-09T09:34:14.455Z,15.03
2022-08-09T09:36:46.649Z,15.19
2022-08-09T09:39:19.986Z,15.05
2022-08-09T09:41:49.879Z,15.05
2022-08-09T09:44:27.665Z,15.11
2022-08-09T09:47:05.327Z,14.65
2022-08-09T09:49:49.931Z,14.20
2022-08-09T09:52:35.957Z,15.71
2022-08-09T09:55:16.799Z,15.35
2022-08-09T09:58:06.218Z,14.82
2022-08-09T10:00:55.483Z,13.80
2022-08-09T10:03:44.659Z,14.34
2022-08-09T10:06:23.394Z,14.38
2022-08-09T10:08:55.161Z,13.81
2022-08-09T10:12:07.763Z,14.18
2022-08-09T10:14:30.602Z,14.83
2022-08-09T10:17:51.152Z,13.48
2022-08-09T10:19:56.995Z,13.89
2022-08-09T10:22:50.706Z,15.03
2022-08-09T10:25:20.812Z,15.04
2022-08-09T10:27:57.893Z,15.65
2022-08-09T10:32:13.686Z,15.56
2022-08-09T10:34:09.140Z,15.45
2022-08-09T10:36:01.229Z,15.83
2022-08-09T10:38:54.881Z,16.51
2022-08-09T10:41:16.155Z,15.75
2022-08-09T10:44:01.076Z,16.08
2022-08-09T10:46:54.732Z,16.12
2022-08-09T10:49:50.079Z,15.63
2022-08-09T10:52:20.549Z,15.96
2022-08-09T10:54:48.948Z,16.37
2022-08-09T10:57:16.896Z,16.53
2022-08-09T10:59:58.165Z,16.24
2022-08-09T11:03:10.961Z,16.13
2022-08-09T11:05:29.818Z,16.64
2022-08-09T11:07:59.378Z,17.90
2022-08-09T11:10:41.287Z,17.37
2022-08-09T11:13:53.806Z,17.48
2022-08-09T11:16:33.607Z,17.49
2022-08-09T11:19:07.860Z,17.40
2022-08-09T11:22:16.767Z,17.20
2022-08-09T11:25:04.539Z,17.16
2022-08-09T11:28:02.451Z,17.37
2022-08-09T11:30:32.669Z,17.99
2022-08-09T11:33:03.508Z,18.13
2022-08-09T11:35:49.431Z,18.75
2022-08-09T11:38:28.530Z,17.31
2022-08-09T11:41:16.168Z,17.32
2022-08-09T11:43:46.670Z,18.25
2022-08-09T11:46:18.652Z,19.50
2022-08-09T11:48:59.490Z,18.61
2022-08-09T11:53:03.785Z,17.82
2022-08-09T11:54:28.927Z,17.60
2022-08-09T11:58:00.101Z,18.07
2022-08-09T12:00:27.656Z,18.14
2022-08-09T12:02:55.680Z,18.64
2022-08-09T12:05:23.113Z,18.51
2022-08-09T12:07:49.984Z,18.89
2022-08-09T12:10:39.384Z,19.56
2022-08-09T12:14:09.888Z,19.66
2022-08-09T12:16:37.667Z,19.64
2022-08-09T12:19:06.555Z,20.18
2022-08-09T12:21:39.266Z,20.19
2022-08-09T12:24:20.769Z,20.07
2022-08-09T12:29:11.660Z,20.52
2022-08-09T12:29:44.497Z,20.60
2022-08-09T12:32:25.655Z,20.49
2022-08-09T12:34:53.608Z,20.60
2022-08-09T12:37:23.672Z,21.12
2022-08-09T12:40:24.936Z,20.46
2022-08-09T12:42:51.683Z,20.38
2022-08-09T12:45:33.796Z,20.52
2022-08-09T12:48:05.602Z,20.08
2022-08-09T12:50:38.078Z,19.73
2022-08-09T12:53:18.436Z,20.14
2022-08-09T12:56:14.779Z,19.90
2022-08-09T12:58:34.018Z,20.16
2022-08-09T13:01:18.744Z,20.32
2022-08-09T13:04:08.303Z,20.17
2022-08-09T13:06:55.013Z,20.70
2022-08-09T13:09:21.546Z,20.75
2022-08-09T13:11:52.008Z,20.88
2022-08-09T13:14:43.836Z,20.75
2022-08-09T13:17:33.628Z,20.90
2022-08-09T13:20:14.296Z,21.33
2022-08-09T13:23:05.655Z,21.13
2022-08-09T13:25:54.811Z,21.09
2022-08-09T13:28:34.530Z,21.16
2022-08-09T13:32:19.954Z,21.92
2022-08-09T13:33:58.502Z,22.03
2022-08-09T13:36:40.308Z,21.74
2022-08-09T13:41:19.428Z,21.68
2022-08-09T13:42:12.695Z,21.74
2022-08-09T13:44:42.181Z,21.49
2022-08-09T13:47:29.355Z,21.60
2022-08-09T13:50:03.517Z,21.77
2022-08-09T13:52:39.071Z,21.86
2022-08-09T13:55:09.087Z,21.59
2022-08-09T13:57:44.658Z,21.62
2022-08-09T14:00:18.709Z,21.28
2022-08-09T14:03:16.687Z,21.20
2022-08-09T14:05:59.912Z,21.25
2022-08-09T14:08:20.995Z,21.23
2022-08-09T14:10:52.162Z,21.68
2022-08-09T14:14:15.076Z,21.43
2022-08-09T14:16:14.008Z,21.63
2022-08-09T14:18:45.514Z,21.43
2022-08-09T14:21:18.847Z,21.42
2022-08-09T14:23:55.027Z,21.22
2022-08-09T14:26:30.602Z,21.12
2022-08-09T14:29:03.461Z,21.10
2022-08-09T14:31:36.176Z,21.19
2022-08-09T14:34:31.852Z,21.32
2022-08-09T14:37:07.609Z,21.39
2022-08-09T14:39:47.490Z,21.35
2022-08-09T14:42:30.425Z,21.27
2022-08-09T14:46:40.066Z,21.06
2022-08-09T14:47:57.408Z,21.21
2022-08-09T14:50:30.501Z,21.16
2022-08-09T14:52:57.799Z,21.25
2022-08-09T14:55:24.441Z,21.39
2022-08-09T14:57:51.541Z,21.28
2022-08-09T15:00:18.365Z,21.65
2022-08-09T15:02:47.272Z,21.78
2022-08-09T15:05:15.230Z,21.82
2022-08-09T15:07:45.571Z,21.81
2022-08-09T15:10:25.068Z,21.76
2022-08-09T15:12:53.203Z,22.01
2022-08-09T15:15:20.240Z,21.99
2022-08-09T15:17:51.778Z,21.40
2022-08-09T15:21:54.854Z,21.41
2022-08-09T15:23:56.068Z,21.52
2022-08-09T15:25:53.790Z,21.45
2022-08-09T15:28:27.835Z,21.84
2022-08-09T15:31:09.919Z,21.70
2022-08-09T15:34:17.281Z,21.47
2022-08-09T15:36:28.769Z,21.34
2022-08-09T15:38:57.172Z,21.84
2022-08-09T15:41:31.785Z,21.44
2022-08-09T15:44:00.547Z,21.32
2022-08-09T15:46:33.788Z,21.31
2022-08-09T15:49:22.374Z,21.61
2022-08-09T15:52:03.160Z,21.91
2022-08-09T15:54:44.676Z,22.26
2022-08-09T15:57:18.712Z,22.22
2022-08-09T15:59:51.470Z,22.23
2022-08-09T16:02:19.066Z,22.54
2022-08-09T16:04:53.876Z,22.51
2022-08-09T16:07:20.505Z,21.93
2022-08-09T16:09:57.564Z,22.12
2022-08-09T16:12:31.248Z,22.15
2022-08-09T16:14:57.895Z,22.64
2022-08-09T16:17:28.892Z,22.53
2022-08-09T16:20:04.914Z,22.19
2022-08-09T16:22:42.436Z,22.17
2022-08-09T16:25:15.877Z,22.24
2022-08-09T16:27:42.592Z,22.21
2022-08-09T16:30:15.367Z,22.34
2022-08-09T16:33:10.265Z,22.56
2022-08-09T16:35:57.607Z,23.07
2022-08-09T16:38:24.748Z,23.00
2022-08-09T16:40:51.894Z,23.60
2022-08-09T16:43:18.605Z,23.09
2022-08-09T16:45:48.124Z,23.36
2022-08-09T16:48:42.505Z,23.34
2022-08-09T16:51:07.413Z,23.16
2022-08-09T16:53:35.400Z,23.27
2022-08-09T16:56:09.373Z,23.57
2022-08-09T16:58:39.918Z,23.28
2022-08-09T17:01:16.792Z,23.64
2022-08-09T17:03:46.216Z,23.44
2022-08-09T17:06:31.385Z,23.73
2022-08-09T17:09:12.194Z,23.78
2022-08-09T17:11:51.263Z,23.63
2022-08-09T17:14:26.097Z,23.78
2022-08-09T17:16:59.945Z,23.99
2022-08-09T17:19:47.704Z,23.89
2022-08-09T17:22:23.840Z,23.87
2022-08-09T17:24:55.838Z,24.34
2022-08-09T17:27:31.050Z,24.27
2022-08-09T17:29:57.767Z,24.47
2022-08-09T17:32:34.860Z,24.37
2022-08-09T17:35:11.566Z,24.45
2022-08-09T17:38:12.510Z,24.46
2022-08-09T17:40:29.495Z,24.67
2022-08-09T17:42:59.741Z,24.72
2022-08-09T17:46:03.322Z,24.41
2022-08-09T17:48:29.309Z,24.84
2022-08-09T17:50:59.202Z,24.96
2022-08-09T17:53:26.161Z,24.65
2022-08-09T17:55:57.620Z,24.81
2022-08-09T17:58:27.708Z,25.06
2022-08-09T18:00:56.661Z,24.65
2022-08-09T18:03:25.088Z,24.80
2022-08-09T18:05:52.936Z,24.86
2022-08-09T18:08:22.014Z,24.72
2022-08-09T18:11:00.726Z,24.68
2022-08-09T18:13:39.784Z,24.92
2022-08-09T18:16:09.759Z,25.18
2022-08-09T18:18:43.347Z,25.16
2022-08-09T18:21:22.856Z,25.21
2022-08-09T18:24:09.482Z,25.13
2022-08-09T18:26:38.442Z,25.06
2022-08-09T18:30:39.437Z,25.37
2022-08-09T18:32:00.404Z,25.33
2022-08-09T18:34:31.683Z,25.26
2022-08-09T18:36:58.501Z,25.41
2022-08-09T18:39:32.140Z,25.48
2022-08-09T18:42:01.054Z,25.63
2022-08-09T18:44:27.838Z,25.04
2022-08-09T18:47:04.965Z,24.55
2022-08-09T18:49:43.062Z,24.07
2022-08-09T18:52:12.885Z,23.62
2022-08-09T18:54:42.112Z,23.47
2022-08-09T18:57:19.894Z,23.44
2022-08-09T18:59:54.357Z,23.54
2022-08-09T19:02:23.931Z,23.66
2022-08-09T19:05:14.644Z,23.58
2022-08-09T19:08:03.650Z,23.66
2022-08-09T19:10:37.332Z,23.85
2022-08-09T19:13:20.526Z,23.60
2022-08-09T19:15:56.321Z,23.71
2022-08-09T19:18:33.886Z,23.63
2022-08-09T19:21:10.630Z,23.53
2022-08-09T19:24:32.594Z,23.69
2022-08-09T19:26:31.337Z,23.59
2022-08-09T19:29:01.330Z,23.54
2022-08-09T19:31:30.228Z,23.41
2022-08-09T19:33:58.065Z,23.22
2022-08-09T19:36:31.017Z,23.14
2022-08-09T19:39:03.401Z,23.31
2022-08-09T19:41:33.097Z,23.19
2022-08-09T19:44:03.197Z,23.15
2022-08-09T19:46:34.169Z,23.04
2022-08-09T19:50:09.151Z,23.11
2022-08-09T19:51:55.919Z,23.01
2022-08-09T19:54:26.934Z,22.99
2022-08-09T19:56:54.283Z,23.15
2022-08-09T19:59:58.308Z,23.22
2022-08-09T20:02:17.353Z,23.29
2022-08-09T20:04:58.976Z,23.04
2022-08-09T20:07:26.235Z,23.08
2022-08-09T20:10:17.701Z,23.00
2022-08-09T20:12:49.047Z,22.91
2022-08-09T20:16:35.407Z,22.97
2022-08-09T20:18:05.284Z,22.90
2022-08-09T20:20:35.395Z,23.17
2022-08-09T20:23:04.348Z,23.15
2022-08-09T20:25:51.780Z,23.31
2022-08-09T20:28:24.412Z,23.53
2022-08-09T20:30:55.200Z,23.59
2022-08-09T20:33:21.920Z,23.55
2022-08-09T20:35:51.593Z,23.38
2022-08-09T20:38:29.981Z,23.30
2022-08-09T20:41:00.830Z,23.22
2022-08-09T20:43:27.708Z,23.14
2022-08-09T20:45:59.462Z,23.01
2022-08-09T20:48:30.608Z,23.10
2022-08-09T20:50:58.703Z,23.16
2022-08-09T20:53:37.447Z,22.99
2022-08-09T20:56:06.530Z,22.91
2022-08-09T20:58:35.512Z,22.93
2022-08-09T21:01:33.226Z,22.58
2022-08-09T21:05:48.407Z,22.56
2022-08-09T21:06:41.503Z,22.43
2022-08-09T21:09:11.671Z,22.54
2022-08-09T21:14:26.866Z,22.47
2022-08-09T21:16:57.589Z,22.39
2022-08-09T21:20:18.681Z,22.51
2022-08-09T21:22:36.306Z,22.51
2022-08-09T21:25:17.750Z,22.71
2022-08-09T21:27:51.537Z,22.58
2022-08-09T21:30:19.400Z,22.83
2022-08-09T21:32:48.990Z,22.75
2022-08-09T21:35:16.176Z,22.81
2022-08-09T21:37:56.891Z,22.97
2022-08-09T21:40:30.590Z,23.11
2022-08-09T21:42:59.749Z,23.07
2022-08-09T21:45:27.650Z,23.40
2022-08-09T21:47:54.256Z,23.32
2022-08-09T21:50:33.912Z,23.52
2022-08-09T21:53:19.811Z,23.91
2022-08-09T21:55:55.145Z,23.98
2022-08-09T21:58:31.196Z,24.07
2022-08-09T22:00:57.999Z,24.25
2022-08-09T22:03:25.585Z,24.32
2022-08-09T22:05:52.964Z,24.09
2022-08-09T22:08:24.628Z,24.04
2022-08-09T22:11:00.168Z,24.03
2022-08-09T22:13:38.240Z,24.22
2022-08-09T22:16:07.278Z,24.19
2022-08-09T22:18:35.152Z,24.36
2022-08-09T22:21:09.931Z,24.33
2022-08-09T22:23:59.483Z,24.47
2022-08-09T22:26:35.143Z,24.46
2022-08-09T22:29:07.029Z,24.55
2022-08-09T22:31:37.717Z,24.78
2022-08-09T22:34:14.507Z,24.76
2022-08-09T22:36:45.524Z,24.85
2022-08-09T22:39:47.318Z,24.91
2022-08-09T22:42:00.905Z,25.02
2022-08-09T22:44:29.896Z,24.99
2022-08-09T22:48:18.806Z,24.99
2022-08-09T22:49:46.726Z,25.19
2022-08-09T22:52:13.421Z,25.40
2022-08-09T22:54:42.393Z,25.37
2022-08-09T22:57:13.578Z,25.56
2022-08-09T22:59:55.905Z,25.54
2022-08-09T23:02:25.205Z,25.87
2022-08-09T23:04:53.769Z,25.95
2022-08-09T23:08:23.283Z,26.27
2022-08-09T23:10:27.606Z,26.52
2022-08-09T23:12:54.181Z,26.60
2022-08-09T23:15:20.800Z,26.42
2022-08-09T23:17:47.365Z,26.54
2022-08-09T23:20:14.142Z,26.74
2022-08-09T23:22:40.725Z,26.82
2022-08-09T23:25:07.587Z,26.82
2022-08-09T23:27:34.381Z,26.97
2022-08-09T23:30:01.143Z,26.96
2022-08-09T23:32:27.777Z,26.97
2022-08-09T23:34:54.399Z,26.95
2022-08-09T23:37:22.657Z,27.13
2022-08-09T23:39:57.927Z,27.28
2022-08-09T23:42:26.368Z,27.41
2022-08-09T23:44:53.131Z,27.42
2022-08-09T23:47:19.718Z,27.41
2022-08-09T23:49:46.304Z,27.87
2022-08-09T23:52:12.915Z,27.72
2022-08-09T23:54:42.795Z,27.74
2022-08-09T23:57:12.208Z,27.96
